sensor_id;sensor_type;location;lat;lon;timestamp;P1;durP1;ratioP1;P2;durP2;ratioP2
85328;SDS011;76315;47.638;21.652;2024-03-07T00:00:06;14.60;;;6.90;;
85328;SDS011;76315;47.638;21.652;2024-03-07T00:02:49;13.68;;;5.85;;
85328;SDS011;76315;47.638;21.652;2024-03-07T00:05:19;14.25;;;6.43;;
85328;SDS011;76315;47.638;21.652;2024-03-07T00:07:45;12.13;;;6.38;;
85328;SDS011;76315;47.638;21.652;2024-03-07T00:10:14;12.45;;;6.60;;
85328;SDS011;76315;47.638;21.652;2024-03-07T00:12:40;14.00;;;6.67;;
85328;SDS011;76315;47.638;21.652;2024-03-07T00:15:06;14.00;;;6.53;;
85328;SDS011;76315;47.638;21.652;2024-03-07T00:17:33;11.90;;;5.18;;
85328;SDS011;76315;47.638;21.652;2024-03-07T00:19:59;12.27;;;6.13;;
85328;SDS011;76315;47.638;21.652;2024-03-07T00:22:25;12.20;;;5.82;;
85328;SDS011;76315;47.638;21.652;2024-03-07T00:24:54;13.73;;;6.00;;
85328;SDS011;76315;47.638;21.652;2024-03-07T00:27:20;11.55;;;5.88;;
85328;SDS011;76315;47.638;21.652;2024-03-07T00:29:49;11.27;;;5.20;;
85328;SDS011;76315;47.638;21.652;2024-03-07T00:32:22;10.30;;;5.47;;
85328;SDS011;76315;47.638;21.652;2024-03-07T00:34:48;15.95;;;6.32;;
85328;SDS011;76315;47.638;21.652;2024-03-07T00:37:15;9.65;;;5.00;;
85328;SDS011;76315;47.638;21.652;2024-03-07T00:39:43;13.33;;;5.70;;
85328;SDS011;76315;47.638;21.652;2024-03-07T00:42:09;13.15;;;6.32;;
85328;SDS011;76315;47.638;21.652;2024-03-07T00:44:35;13.40;;;6.05;;
85328;SDS011;76315;47.638;21.652;2024-03-07T00:47:01;9.85;;;5.00;;
85328;SDS011;76315;47.638;21.652;2024-03-07T00:49:28;13.20;;;6.03;;
85328;SDS011;76315;47.638;21.652;2024-03-07T00:51:54;13.05;;;6.43;;
85328;SDS011;76315;47.638;21.652;2024-03-07T00:54:19;11.98;;;5.90;;
85328;SDS011;76315;47.638;21.652;2024-03-07T00:56:45;11.77;;;5.03;;
85328;SDS011;76315;47.638;21.652;2024-03-07T00:59:14;12.57;;;5.23;;
85328;SDS011;76315;47.638;21.652;2024-03-07T01:01:40;14.00;;;5.53;;
85328;SDS011;76315;47.638;21.652;2024-03-07T01:04:06;12.77;;;5.95;;
85328;SDS011;76315;47.638;21.652;2024-03-07T01:06:33;9.52;;;4.55;;
85328;SDS011;76315;47.638;21.652;2024-03-07T01:09:01;11.93;;;5.47;;
85328;SDS011;76315;47.638;21.652;2024-03-07T01:11:27;12.90;;;5.57;;
85328;SDS011;76315;47.638;21.652;2024-03-07T01:13:52;12.57;;;5.93;;
85328;SDS011;76315;47.638;21.652;2024-03-07T01:16:18;11.63;;;6.07;;
85328;SDS011;76315;47.638;21.652;2024-03-07T01:18:44;13.18;;;5.43;;
85328;SDS011;76315;47.638;21.652;2024-03-07T01:21:09;12.07;;;6.53;;
85328;SDS011;76315;47.638;21.652;2024-03-07T01:23:35;11.57;;;5.70;;
85328;SDS011;76315;47.638;21.652;2024-03-07T01:26:00;11.50;;;5.85;;
85328;SDS011;76315;47.638;21.652;2024-03-07T01:28:26;13.77;;;6.10;;
85328;SDS011;76315;47.638;21.652;2024-03-07T01:30:55;13.73;;;7.03;;
85328;SDS011;76315;47.638;21.652;2024-03-07T01:33:21;15.02;;;7.68;;
85328;SDS011;76315;47.638;21.652;2024-03-07T01:35:47;13.70;;;6.77;;
85328;SDS011;76315;47.638;21.652;2024-03-07T01:38:13;15.63;;;7.05;;
85328;SDS011;76315;47.638;21.652;2024-03-07T01:40:40;13.93;;;7.07;;
85328;SDS011;76315;47.638;21.652;2024-03-07T01:43:06;13.77;;;6.47;;
85328;SDS011;76315;47.638;21.652;2024-03-07T01:45:32;13.85;;;6.68;;
85328;SDS011;76315;47.638;21.652;2024-03-07T01:47:57;12.30;;;6.23;;
85328;SDS011;76315;47.638;21.652;2024-03-07T01:50:25;15.30;;;7.47;;
85328;SDS011;76315;47.638;21.652;2024-03-07T01:52:53;15.30;;;7.53;;
85328;SDS011;76315;47.638;21.652;2024-03-07T01:55:21;14.32;;;7.05;;
85328;SDS011;76315;47.638;21.652;2024-03-07T01:57:48;13.38;;;6.45;;
85328;SDS011;76315;47.638;21.652;2024-03-07T02:00:14;12.68;;;5.78;;
85328;SDS011;76315;47.638;21.652;2024-03-07T02:02:40;13.23;;;6.43;;
85328;SDS011;76315;47.638;21.652;2024-03-07T02:05:06;12.07;;;6.63;;
85328;SDS011;76315;47.638;21.652;2024-03-07T02:07:31;12.67;;;7.83;;
85328;SDS011;76315;47.638;21.652;2024-03-07T02:10:01;14.05;;;6.85;;
85328;SDS011;76315;47.638;21.652;2024-03-07T02:12:28;14.65;;;6.80;;
85328;SDS011;76315;47.638;21.652;2024-03-07T02:14:55;14.17;;;6.83;;
85328;SDS011;76315;47.638;21.652;2024-03-07T02:17:22;13.45;;;6.43;;
85328;SDS011;76315;47.638;21.652;2024-03-07T02:19:50;11.20;;;6.13;;
85328;SDS011;76315;47.638;21.652;2024-03-07T02:22:16;12.80;;;6.60;;
85328;SDS011;76315;47.638;21.652;2024-03-07T02:24:42;12.43;;;6.70;;
85328;SDS011;76315;47.638;21.652;2024-03-07T02:27:11;9.30;;;5.67;;
85328;SDS011;76315;47.638;21.652;2024-03-07T02:29:46;9.57;;;4.40;;
85328;SDS011;76315;47.638;21.652;2024-03-07T02:32:14;12.73;;;6.43;;
85328;SDS011;76315;47.638;21.652;2024-03-07T02:34:39;12.83;;;6.20;;
85328;SDS011;76315;47.638;21.652;2024-03-07T02:37:08;14.43;;;5.70;;
85328;SDS011;76315;47.638;21.652;2024-03-07T02:39:36;10.00;;;5.68;;
85328;SDS011;76315;47.638;21.652;2024-03-07T02:42:11;12.57;;;6.13;;
85328;SDS011;76315;47.638;21.652;2024-03-07T02:44:36;11.43;;;6.18;;
85328;SDS011;76315;47.638;21.652;2024-03-07T02:47:04;9.32;;;5.43;;
85328;SDS011;76315;47.638;21.652;2024-03-07T02:49:33;11.13;;;5.85;;
85328;SDS011;76315;47.638;21.652;2024-03-07T02:51:58;8.85;;;4.82;;
85328;SDS011;76315;47.638;21.652;2024-03-07T02:54:24;11.43;;;5.90;;
85328;SDS011;76315;47.638;21.652;2024-03-07T02:56:49;11.17;;;5.43;;
85328;SDS011;76315;47.638;21.652;2024-03-07T02:59:15;10.00;;;5.45;;
85328;SDS011;76315;47.638;21.652;2024-03-07T03:01:41;11.43;;;5.67;;
85328;SDS011;76315;47.638;21.652;2024-03-07T03:04:07;12.23;;;6.47;;
85328;SDS011;76315;47.638;21.652;2024-03-07T03:06:32;9.47;;;4.73;;
85328;SDS011;76315;47.638;21.652;2024-03-07T03:08:58;9.73;;;5.35;;
85328;SDS011;76315;47.638;21.652;2024-03-07T03:11:25;10.00;;;5.43;;
85328;SDS011;76315;47.638;21.652;2024-03-07T03:13:52;10.65;;;6.18;;
85328;SDS011;76315;47.638;21.652;2024-03-07T03:16:20;10.70;;;6.13;;
85328;SDS011;76315;47.638;21.652;2024-03-07T03:18:46;8.80;;;4.68;;
85328;SDS011;76315;47.638;21.652;2024-03-07T03:21:13;10.13;;;5.47;;
85328;SDS011;76315;47.638;21.652;2024-03-07T03:23:40;10.63;;;5.55;;
85328;SDS011;76315;47.638;21.652;2024-03-07T03:26:06;8.20;;;3.92;;
85328;SDS011;76315;47.638;21.652;2024-03-07T03:28:32;10.57;;;5.17;;
85328;SDS011;76315;47.638;21.652;2024-03-07T03:31:01;9.40;;;4.93;;
85328;SDS011;76315;47.638;21.652;2024-03-07T03:33:28;10.18;;;5.43;;
85328;SDS011;76315;47.638;21.652;2024-03-07T03:35:53;11.27;;;5.50;;
85328;SDS011;76315;47.638;21.652;2024-03-07T03:38:20;10.17;;;5.37;;
85328;SDS011;76315;47.638;21.652;2024-03-07T03:40:46;9.85;;;5.28;;
85328;SDS011;76315;47.638;21.652;2024-03-07T03:43:12;10.65;;;5.03;;
85328;SDS011;76315;47.638;21.652;2024-03-07T03:45:37;10.20;;;5.30;;
85328;SDS011;76315;47.638;21.652;2024-03-07T03:48:04;10.18;;;5.90;;
85328;SDS011;76315;47.638;21.652;2024-03-07T03:50:30;10.38;;;5.63;;
85328;SDS011;76315;47.638;21.652;2024-03-07T03:52:56;11.53;;;4.97;;
85328;SDS011;76315;47.638;21.652;2024-03-07T03:55:22;9.30;;;5.15;;
85328;SDS011;76315;47.638;21.652;2024-03-07T03:57:48;11.73;;;5.50;;
85328;SDS011;76315;47.638;21.652;2024-03-07T04:00:14;10.77;;;5.87;;
85328;SDS011;76315;47.638;21.652;2024-03-07T04:02:44;11.63;;;5.57;;
85328;SDS011;76315;47.638;21.652;2024-03-07T04:05:13;8.77;;;4.70;;
85328;SDS011;76315;47.638;21.652;2024-03-07T04:07:39;10.30;;;4.97;;
85328;SDS011;76315;47.638;21.652;2024-03-07T04:10:06;10.00;;;5.17;;
85328;SDS011;76315;47.638;21.652;2024-03-07T04:12:36;10.07;;;5.30;;
85328;SDS011;76315;47.638;21.652;2024-03-07T04:15:03;9.32;;;4.93;;
85328;SDS011;76315;47.638;21.652;2024-03-07T04:17:36;8.48;;;4.90;;
85328;SDS011;76315;47.638;21.652;2024-03-07T04:20:02;10.20;;;4.68;;
85328;SDS011;76315;47.638;21.652;2024-03-07T04:22:31;7.87;;;4.77;;
85328;SDS011;76315;47.638;21.652;2024-03-07T04:25:00;10.30;;;4.97;;
85328;SDS011;76315;47.638;21.652;2024-03-07T04:27:29;9.02;;;5.00;;
85328;SDS011;76315;47.638;21.652;2024-03-07T04:29:55;9.52;;;5.60;;
85328;SDS011;76315;47.638;21.652;2024-03-07T04:32:21;9.57;;;4.83;;
85328;SDS011;76315;47.638;21.652;2024-03-07T04:34:47;9.68;;;4.68;;
85328;SDS011;76315;47.638;21.652;2024-03-07T04:37:14;8.77;;;5.07;;
85328;SDS011;76315;47.638;21.652;2024-03-07T04:39:39;7.33;;;4.33;;
85328;SDS011;76315;47.638;21.652;2024-03-07T04:42:06;10.30;;;5.13;;
85328;SDS011;76315;47.638;21.652;2024-03-07T04:44:33;12.50;;;4.88;;
85328;SDS011;76315;47.638;21.652;2024-03-07T04:47:00;8.30;;;4.27;;
85328;SDS011;76315;47.638;21.652;2024-03-07T04:49:27;9.30;;;4.63;;
85328;SDS011;76315;47.638;21.652;2024-03-07T04:51:54;8.13;;;4.30;;
85328;SDS011;76315;47.638;21.652;2024-03-07T04:54:21;8.87;;;4.70;;
85328;SDS011;76315;47.638;21.652;2024-03-07T04:56:49;10.55;;;4.93;;
85328;SDS011;76315;47.638;21.652;2024-03-07T04:59:17;8.93;;;5.32;;
85328;SDS011;76315;47.638;21.652;2024-03-07T05:01:46;8.70;;;5.00;;
85328;SDS011;76315;47.638;21.652;2024-03-07T05:04:14;11.15;;;5.60;;
85328;SDS011;76315;47.638;21.652;2024-03-07T05:06:41;8.23;;;4.70;;
85328;SDS011;76315;47.638;21.652;2024-03-07T05:09:08;9.45;;;5.13;;
85328;SDS011;76315;47.638;21.652;2024-03-07T05:11:35;8.88;;;5.15;;
85328;SDS011;76315;47.638;21.652;2024-03-07T05:14:02;9.50;;;4.78;;
85328;SDS011;76315;47.638;21.652;2024-03-07T05:16:28;11.43;;;5.40;;
85328;SDS011;76315;47.638;21.652;2024-03-07T05:18:54;9.60;;;6.13;;
85328;SDS011;76315;47.638;21.652;2024-03-07T05:21:23;9.80;;;4.85;;
85328;SDS011;76315;47.638;21.652;2024-03-07T05:24:00;9.05;;;4.43;;
85328;SDS011;76315;47.638;21.652;2024-03-07T05:26:27;9.50;;;4.53;;
85328;SDS011;76315;47.638;21.652;2024-03-07T05:28:53;9.47;;;5.13;;
85328;SDS011;76315;47.638;21.652;2024-03-07T05:31:21;9.27;;;5.15;;
85328;SDS011;76315;47.638;21.652;2024-03-07T05:33:47;8.40;;;4.43;;
85328;SDS011;76315;47.638;21.652;2024-03-07T05:36:13;10.95;;;4.78;;
85328;SDS011;76315;47.638;21.652;2024-03-07T05:38:42;9.57;;;4.80;;
85328;SDS011;76315;47.638;21.652;2024-03-07T05:41:09;8.23;;;4.55;;
85328;SDS011;76315;47.638;21.652;2024-03-07T05:43:40;9.18;;;5.10;;
85328;SDS011;76315;47.638;21.652;2024-03-07T05:46:06;10.03;;;5.10;;
85328;SDS011;76315;47.638;21.652;2024-03-07T05:48:36;9.55;;;5.55;;
85328;SDS011;76315;47.638;21.652;2024-03-07T05:51:02;9.57;;;5.20;;
85328;SDS011;76315;47.638;21.652;2024-03-07T05:53:27;9.27;;;4.53;;
85328;SDS011;76315;47.638;21.652;2024-03-07T05:55:53;9.43;;;5.10;;
85328;SDS011;76315;47.638;21.652;2024-03-07T05:58:19;6.72;;;4.00;;
85328;SDS011;76315;47.638;21.652;2024-03-07T06:00:45;10.10;;;4.70;;
85328;SDS011;76315;47.638;21.652;2024-03-07T06:03:17;8.57;;;5.13;;
85328;SDS011;76315;47.638;21.652;2024-03-07T06:05:45;8.17;;;4.00;;
85328;SDS011;76315;47.638;21.652;2024-03-07T06:08:16;9.43;;;4.68;;
85328;SDS011;76315;47.638;21.652;2024-03-07T06:10:43;7.95;;;4.00;;
85328;SDS011;76315;47.638;21.652;2024-03-07T06:13:13;9.32;;;4.22;;
85328;SDS011;76315;47.638;21.652;2024-03-07T06:15:42;8.25;;;3.83;;
85328;SDS011;76315;47.638;21.652;2024-03-07T06:18:09;8.20;;;4.37;;
85328;SDS011;76315;47.638;21.652;2024-03-07T06:20:36;8.50;;;4.57;;
85328;SDS011;76315;47.638;21.652;2024-03-07T06:23:02;9.15;;;4.72;;
85328;SDS011;76315;47.638;21.652;2024-03-07T06:25:31;12.70;;;6.03;;
85328;SDS011;76315;47.638;21.652;2024-03-07T06:28:11;11.35;;;5.35;;
85328;SDS011;76315;47.638;21.652;2024-03-07T06:30:37;10.67;;;5.00;;
85328;SDS011;76315;47.638;21.652;2024-03-07T06:33:06;9.38;;;4.85;;
85328;SDS011;76315;47.638;21.652;2024-03-07T06:35:32;10.48;;;5.72;;
85328;SDS011;76315;47.638;21.652;2024-03-07T06:38:02;10.13;;;4.50;;
85328;SDS011;76315;47.638;21.652;2024-03-07T06:40:28;9.37;;;4.20;;
85328;SDS011;76315;47.638;21.652;2024-03-07T06:42:54;8.32;;;4.47;;
85328;SDS011;76315;47.638;21.652;2024-03-07T06:45:20;9.70;;;5.40;;
85328;SDS011;76315;47.638;21.652;2024-03-07T06:47:46;9.43;;;5.03;;
85328;SDS011;76315;47.638;21.652;2024-03-07T06:50:12;10.25;;;5.28;;
85328;SDS011;76315;47.638;21.652;2024-03-07T06:52:45;8.20;;;4.22;;
85328;SDS011;76315;47.638;21.652;2024-03-07T06:55:13;9.10;;;5.30;;
85328;SDS011;76315;47.638;21.652;2024-03-07T06:57:42;10.07;;;4.33;;
85328;SDS011;76315;47.638;21.652;2024-03-07T07:00:08;10.00;;;3.85;;
85328;SDS011;76315;47.638;21.652;2024-03-07T07:02:39;8.48;;;4.03;;
85328;SDS011;76315;47.638;21.652;2024-03-07T07:05:06;8.10;;;3.65;;
85328;SDS011;76315;47.638;21.652;2024-03-07T07:07:36;7.30;;;3.75;;
85328;SDS011;76315;47.638;21.652;2024-03-07T07:10:03;8.00;;;4.07;;
85328;SDS011;76315;47.638;21.652;2024-03-07T07:12:37;8.20;;;3.78;;
85328;SDS011;76315;47.638;21.652;2024-03-07T07:15:03;8.52;;;4.50;;
85328;SDS011;76315;47.638;21.652;2024-03-07T07:17:29;8.60;;;4.07;;
85328;SDS011;76315;47.638;21.652;2024-03-07T07:19:56;8.57;;;4.32;;
85328;SDS011;76315;47.638;21.652;2024-03-07T07:22:22;8.05;;;4.20;;
85328;SDS011;76315;47.638;21.652;2024-03-07T07:24:48;9.27;;;4.23;;
85328;SDS011;76315;47.638;21.652;2024-03-07T07:27:14;11.88;;;5.13;;
85328;SDS011;76315;47.638;21.652;2024-03-07T07:29:40;11.63;;;5.65;;
85328;SDS011;76315;47.638;21.652;2024-03-07T07:32:06;11.95;;;5.03;;
85328;SDS011;76315;47.638;21.652;2024-03-07T07:34:32;13.30;;;5.30;;
85328;SDS011;76315;47.638;21.652;2024-03-07T07:36:58;18.88;;;7.20;;
85328;SDS011;76315;47.638;21.652;2024-03-07T07:39:23;13.03;;;6.13;;
85328;SDS011;76315;47.638;21.652;2024-03-07T07:41:49;11.82;;;6.03;;
85328;SDS011;76315;47.638;21.652;2024-03-07T07:44:15;11.60;;;6.00;;
85328;SDS011;76315;47.638;21.652;2024-03-07T07:46:41;12.75;;;5.65;;
85328;SDS011;76315;47.638;21.652;2024-03-07T07:49:06;13.33;;;7.20;;
85328;SDS011;76315;47.638;21.652;2024-03-07T07:51:32;13.73;;;6.70;;
85328;SDS011;76315;47.638;21.652;2024-03-07T07:53:57;12.07;;;5.95;;
85328;SDS011;76315;47.638;21.652;2024-03-07T07:56:24;11.05;;;4.72;;
85328;SDS011;76315;47.638;21.652;2024-03-07T07:58:50;12.98;;;6.32;;
85328;SDS011;76315;47.638;21.652;2024-03-07T08:01:16;12.17;;;6.17;;
85328;SDS011;76315;47.638;21.652;2024-03-07T08:03:43;11.80;;;6.40;;
85328;SDS011;76315;47.638;21.652;2024-03-07T08:06:09;11.75;;;5.28;;
85328;SDS011;76315;47.638;21.652;2024-03-07T08:08:35;12.45;;;6.45;;
85328;SDS011;76315;47.638;21.652;2024-03-07T08:11:00;12.67;;;7.27;;
85328;SDS011;76315;47.638;21.652;2024-03-07T08:13:26;15.00;;;6.53;;
85328;SDS011;76315;47.638;21.652;2024-03-07T08:15:52;13.67;;;5.90;;
85328;SDS011;76315;47.638;21.652;2024-03-07T08:18:19;11.68;;;6.00;;
85328;SDS011;76315;47.638;21.652;2024-03-07T08:20:45;11.20;;;5.35;;
85328;SDS011;76315;47.638;21.652;2024-03-07T08:23:11;11.43;;;6.20;;
85328;SDS011;76315;47.638;21.652;2024-03-07T08:25:40;11.50;;;5.00;;
85328;SDS011;76315;47.638;21.652;2024-03-07T08:28:06;9.98;;;4.88;;
85328;SDS011;76315;47.638;21.652;2024-03-07T08:30:32;9.85;;;5.07;;
85328;SDS011;76315;47.638;21.652;2024-03-07T08:32:58;10.10;;;5.10;;
85328;SDS011;76315;47.638;21.652;2024-03-07T08:35:30;12.23;;;5.68;;
85328;SDS011;76315;47.638;21.652;2024-03-07T08:37:55;10.55;;;4.85;;
85328;SDS011;76315;47.638;21.652;2024-03-07T08:40:26;12.10;;;5.78;;
85328;SDS011;76315;47.638;21.652;2024-03-07T08:42:57;11.35;;;6.35;;
85328;SDS011;76315;47.638;21.652;2024-03-07T08:45:23;9.98;;;5.00;;
85328;SDS011;76315;47.638;21.652;2024-03-07T08:47:50;10.70;;;5.85;;
85328;SDS011;76315;47.638;21.652;2024-03-07T08:50:19;11.60;;;5.70;;
85328;SDS011;76315;47.638;21.652;2024-03-07T08:52:45;7.97;;;4.43;;
85328;SDS011;76315;47.638;21.652;2024-03-07T08:55:15;10.15;;;4.78;;
85328;SDS011;76315;47.638;21.652;2024-03-07T08:57:44;10.00;;;4.47;;
85328;SDS011;76315;47.638;21.652;2024-03-07T09:00:11;8.23;;;4.22;;
85328;SDS011;76315;47.638;21.652;2024-03-07T09:02:47;8.57;;;4.15;;
85328;SDS011;76315;47.638;21.652;2024-03-07T09:05:13;9.55;;;5.00;;
85328;SDS011;76315;47.638;21.652;2024-03-07T09:07:40;10.98;;;4.00;;
85328;SDS011;76315;47.638;21.652;2024-03-07T09:10:06;8.13;;;4.03;;
85328;SDS011;76315;47.638;21.652;2024-03-07T09:12:32;10.35;;;4.70;;
85328;SDS011;76315;47.638;21.652;2024-03-07T09:14:58;11.30;;;4.93;;
85328;SDS011;76315;47.638;21.652;2024-03-07T09:17:26;9.88;;;4.85;;
85328;SDS011;76315;47.638;21.652;2024-03-07T09:19:51;9.40;;;4.30;;
85328;SDS011;76315;47.638;21.652;2024-03-07T09:22:17;8.97;;;4.17;;
85328;SDS011;76315;47.638;21.652;2024-03-07T09:24:43;8.88;;;4.60;;
85328;SDS011;76315;47.638;21.652;2024-03-07T09:27:08;6.10;;;3.40;;
85328;SDS011;76315;47.638;21.652;2024-03-07T09:29:34;8.57;;;4.73;;
85328;SDS011;76315;47.638;21.652;2024-03-07T09:32:00;8.85;;;3.78;;
85328;SDS011;76315;47.638;21.652;2024-03-07T09:34:27;8.00;;;4.30;;
85328;SDS011;76315;47.638;21.652;2024-03-07T09:36:52;8.53;;;4.60;;
85328;SDS011;76315;47.638;21.652;2024-03-07T09:39:22;7.85;;;3.95;;
85328;SDS011;76315;47.638;21.652;2024-03-07T09:41:53;8.60;;;4.68;;
85328;SDS011;76315;47.638;21.652;2024-03-07T09:44:20;9.57;;;4.67;;
85328;SDS011;76315;47.638;21.652;2024-03-07T09:46:50;8.15;;;4.65;;
85328;SDS011;76315;47.638;21.652;2024-03-07T09:49:16;9.15;;;4.50;;
85328;SDS011;76315;47.638;21.652;2024-03-07T09:52:13;8.70;;;4.03;;
85328;SDS011;76315;47.638;21.652;2024-03-07T09:54:40;7.17;;;3.73;;
85328;SDS011;76315;47.638;21.652;2024-03-07T09:57:06;8.05;;;3.65;;
85328;SDS011;76315;47.638;21.652;2024-03-07T09:59:35;10.02;;;4.55;;
85328;SDS011;76315;47.638;21.652;2024-03-07T10:02:03;10.20;;;5.18;;
85328;SDS011;76315;47.638;21.652;2024-03-07T10:04:42;10.03;;;4.40;;
85328;SDS011;76315;47.638;21.652;2024-03-07T10:07:14;9.63;;;4.50;;
85328;SDS011;76315;47.638;21.652;2024-03-07T10:09:40;9.23;;;3.88;;
85328;SDS011;76315;47.638;21.652;2024-03-07T10:12:07;9.07;;;4.15;;
85328;SDS011;76315;47.638;21.652;2024-03-07T10:14:38;7.13;;;3.65;;
85328;SDS011;76315;47.638;21.652;2024-03-07T10:17:04;8.63;;;3.90;;
85328;SDS011;76315;47.638;21.652;2024-03-07T10:19:30;8.40;;;4.07;;
85328;SDS011;76315;47.638;21.652;2024-03-07T10:21:56;7.55;;;3.42;;
85328;SDS011;76315;47.638;21.652;2024-03-07T10:27:42;10.40;;;4.82;;
85328;SDS011;76315;47.638;21.652;2024-03-07T10:30:46;8.30;;;4.20;;
85328;SDS011;76315;47.638;21.652;2024-03-07T10:33:15;8.63;;;4.70;;
85328;SDS011;76315;47.638;21.652;2024-03-07T10:35:42;7.93;;;4.00;;
85328;SDS011;76315;47.638;21.652;2024-03-07T10:38:07;7.27;;;3.60;;
85328;SDS011;76315;47.638;21.652;2024-03-07T10:40:37;9.35;;;4.38;;
85328;SDS011;76315;47.638;21.652;2024-03-07T10:43:07;8.93;;;4.90;;
85328;SDS011;76315;47.638;21.652;2024-03-07T10:45:42;10.60;;;4.80;;
85328;SDS011;76315;47.638;21.652;2024-03-07T10:48:12;8.65;;;4.10;;
85328;SDS011;76315;47.638;21.652;2024-03-07T10:55:51;9.30;;;4.95;;
85328;SDS011;76315;47.638;21.652;2024-03-07T10:58:33;9.97;;;5.43;;
85328;SDS011;76315;47.638;21.652;2024-03-07T11:01:04;11.88;;;5.28;;
85328;SDS011;76315;47.638;21.652;2024-03-07T11:03:36;8.80;;;4.70;;
85328;SDS011;76315;47.638;21.652;2024-03-07T11:06:02;10.40;;;5.25;;
85328;SDS011;76315;47.638;21.652;2024-03-07T11:08:34;9.03;;;4.60;;
85328;SDS011;76315;47.638;21.652;2024-03-07T11:11:11;9.25;;;3.85;;
85328;SDS011;76315;47.638;21.652;2024-03-07T11:13:39;9.70;;;5.40;;
85328;SDS011;76315;47.638;21.652;2024-03-07T11:16:05;12.73;;;5.68;;
85328;SDS011;76315;47.638;21.652;2024-03-07T11:18:35;11.23;;;5.93;;
85328;SDS011;76315;47.638;21.652;2024-03-07T11:21:03;14.98;;;6.93;;
85328;SDS011;76315;47.638;21.652;2024-03-07T11:23:33;13.02;;;6.25;;
85328;SDS011;76315;47.638;21.652;2024-03-07T11:26:09;15.45;;;7.07;;
85328;SDS011;76315;47.638;21.652;2024-03-07T11:28:39;13.52;;;6.53;;
85328;SDS011;76315;47.638;21.652;2024-03-07T11:31:09;12.53;;;6.10;;
85328;SDS011;76315;47.638;21.652;2024-03-07T11:36:44;12.20;;;5.65;;
85328;SDS011;76315;47.638;21.652;2024-03-07T11:42:04;14.35;;;7.22;;
85328;SDS011;76315;47.638;21.652;2024-03-07T11:44:42;15.43;;;7.67;;
85328;SDS011;76315;47.638;21.652;2024-03-07T11:47:10;17.42;;;7.30;;
85328;SDS011;76315;47.638;21.652;2024-03-07T11:49:41;12.23;;;5.75;;
85328;SDS011;76315;47.638;21.652;2024-03-07T11:52:24;12.85;;;6.82;;
85328;SDS011;76315;47.638;21.652;2024-03-07T11:54:56;13.68;;;5.88;;
85328;SDS011;76315;47.638;21.652;2024-03-07T11:57:28;10.00;;;4.47;;
85328;SDS011;76315;47.638;21.652;2024-03-07T12:00:00;12.77;;;6.55;;
85328;SDS011;76315;47.638;21.652;2024-03-07T12:02:33;14.27;;;7.45;;
85328;SDS011;76315;47.638;21.652;2024-03-07T12:04:59;13.88;;;6.93;;
85328;SDS011;76315;47.638;21.652;2024-03-07T12:07:25;14.57;;;7.27;;
85328;SDS011;76315;47.638;21.652;2024-03-07T12:09:52;13.32;;;7.05;;
85328;SDS011;76315;47.638;21.652;2024-03-07T12:12:21;15.82;;;7.28;;
85328;SDS011;76315;47.638;21.652;2024-03-07T12:14:47;14.90;;;7.35;;
85328;SDS011;76315;47.638;21.652;2024-03-07T12:17:13;15.35;;;7.05;;
85328;SDS011;76315;47.638;21.652;2024-03-07T12:19:43;13.37;;;6.60;;
85328;SDS011;76315;47.638;21.652;2024-03-07T12:22:09;13.85;;;7.15;;
85328;SDS011;76315;47.638;21.652;2024-03-07T12:24:41;16.88;;;7.85;;
85328;SDS011;76315;47.638;21.652;2024-03-07T12:27:10;12.40;;;5.90;;
85328;SDS011;76315;47.638;21.652;2024-03-07T12:29:37;16.08;;;8.68;;
85328;SDS011;76315;47.638;21.652;2024-03-07T12:32:07;18.02;;;7.80;;
85328;SDS011;76315;47.638;21.652;2024-03-07T12:34:33;13.77;;;6.05;;
85328;SDS011;76315;47.638;21.652;2024-03-07T12:37:10;14.05;;;6.22;;
85328;SDS011;76315;47.638;21.652;2024-03-07T12:39:41;15.27;;;7.63;;
85328;SDS011;76315;47.638;21.652;2024-03-07T12:42:14;15.03;;;7.80;;
85328;SDS011;76315;47.638;21.652;2024-03-07T12:44:42;15.10;;;7.50;;
85328;SDS011;76315;47.638;21.652;2024-03-07T12:47:11;13.02;;;6.30;;
85328;SDS011;76315;47.638;21.652;2024-03-07T12:49:46;13.75;;;7.30;;
85328;SDS011;76315;47.638;21.652;2024-03-07T12:52:11;16.38;;;7.93;;
85328;SDS011;76315;47.638;21.652;2024-03-07T12:54:40;13.87;;;7.47;;
85328;SDS011;76315;47.638;21.652;2024-03-07T12:57:07;16.83;;;6.93;;
85328;SDS011;76315;47.638;21.652;2024-03-07T12:59:34;18.08;;;7.78;;
85328;SDS011;76315;47.638;21.652;2024-03-07T13:02:09;14.80;;;7.32;;
85328;SDS011;76315;47.638;21.652;2024-03-07T13:04:41;12.27;;;5.95;;
85328;SDS011;76315;47.638;21.652;2024-03-07T13:07:08;14.23;;;7.00;;
85328;SDS011;76315;47.638;21.652;2024-03-07T13:09:33;13.20;;;7.05;;
85328;SDS011;76315;47.638;21.652;2024-03-07T13:11:59;15.70;;;7.50;;
85328;SDS011;76315;47.638;21.652;2024-03-07T13:14:36;14.73;;;7.15;;
85328;SDS011;76315;47.638;21.652;2024-03-07T13:17:02;17.13;;;8.55;;
85328;SDS011;76315;47.638;21.652;2024-03-07T13:19:29;14.50;;;7.75;;
85328;SDS011;76315;47.638;21.652;2024-03-07T13:21:58;14.57;;;6.70;;
85328;SDS011;76315;47.638;21.652;2024-03-07T13:24:27;17.70;;;7.70;;
85328;SDS011;76315;47.638;21.652;2024-03-07T13:26:58;18.98;;;9.30;;
85328;SDS011;76315;47.638;21.652;2024-03-07T13:29:50;16.88;;;8.23;;
85328;SDS011;76315;47.638;21.652;2024-03-07T13:32:18;16.70;;;8.25;;
85328;SDS011;76315;47.638;21.652;2024-03-07T13:34:44;14.93;;;8.17;;
85328;SDS011;76315;47.638;21.652;2024-03-07T13:37:11;19.60;;;9.43;;
85328;SDS011;76315;47.638;21.652;2024-03-07T13:39:54;15.55;;;7.55;;
85328;SDS011;76315;47.638;21.652;2024-03-07T13:42:24;18.60;;;9.52;;
85328;SDS011;76315;47.638;21.652;2024-03-07T13:44:49;12.90;;;6.80;;
85328;SDS011;76315;47.638;21.652;2024-03-07T13:47:15;14.17;;;5.73;;
85328;SDS011;76315;47.638;21.652;2024-03-07T13:49:41;16.98;;;8.30;;
85328;SDS011;76315;47.638;21.652;2024-03-07T13:52:07;18.08;;;8.98;;
85328;SDS011;76315;47.638;21.652;2024-03-07T13:54:44;19.92;;;9.35;;
85328;SDS011;76315;47.638;21.652;2024-03-07T13:57:26;17.93;;;8.00;;
85328;SDS011;76315;47.638;21.652;2024-03-07T14:00:05;16.92;;;8.60;;
85328;SDS011;76315;47.638;21.652;2024-03-07T14:20:21;17.17;;;8.15;;
85328;SDS011;76315;47.638;21.652;2024-03-07T14:31:11;15.00;;;7.47;;
85328;SDS011;76315;47.638;21.652;2024-03-07T14:33:54;20.13;;;7.50;;
85328;SDS011;76315;47.638;21.652;2024-03-07T14:36:34;15.60;;;7.63;;
85328;SDS011;76315;47.638;21.652;2024-03-07T14:39:12;13.73;;;7.18;;
85328;SDS011;76315;47.638;21.652;2024-03-07T14:41:51;13.60;;;6.20;;
85328;SDS011;76315;47.638;21.652;2024-03-07T14:44:19;13.73;;;7.55;;
85328;SDS011;76315;47.638;21.652;2024-03-07T14:46:45;14.70;;;7.43;;
85328;SDS011;76315;47.638;21.652;2024-03-07T14:49:13;16.02;;;7.15;;
85328;SDS011;76315;47.638;21.652;2024-03-07T14:51:41;15.63;;;7.80;;
85328;SDS011;76315;47.638;21.652;2024-03-07T14:54:08;13.65;;;7.50;;
85328;SDS011;76315;47.638;21.652;2024-03-07T14:56:34;22.13;;;9.17;;
85328;SDS011;76315;47.638;21.652;2024-03-07T14:59:00;24.58;;;9.60;;
85328;SDS011;76315;47.638;21.652;2024-03-07T15:01:29;21.73;;;9.70;;
85328;SDS011;76315;47.638;21.652;2024-03-07T15:04:02;15.45;;;7.75;;
85328;SDS011;76315;47.638;21.652;2024-03-07T15:06:37;16.45;;;8.38;;
85328;SDS011;76315;47.638;21.652;2024-03-07T15:09:04;17.20;;;8.65;;
85328;SDS011;76315;47.638;21.652;2024-03-07T15:11:35;12.82;;;5.93;;